Time;durP1;ratioP1;P1;durP2;ratioP2;P2;SDS_P1;SDS_P2;PMS_P1;PMS_P2;Temp;Humidity;BMP_temperature;BMP_pressure;BME280_temperature;BME280_humidity;BME280_pressure;Samples;Min_cycle;Max_cycle;Signal;HPM_P1;HPM_P2
2022/09/02 00:01:11;;;;;;;2.10;1.90;;;;;;;;;;4947696;28;20235;-57
2022/09/02 00:03:37;;;;;;;1.90;1.70;;;;;;;;;;4945064;28;20314;-58
2022/09/02 00:06:04;;;;;;;1.95;1.55;;;;;;;;;;4933602;29;20254;-58
2022/09/02 00:08:31;;;;;;;2.55;1.30;;;;;;;;;;4945304;28;20289;-58
2022/09/02 00:10:59;;;;;;;3.25;1.60;;;;;;;;;;4947379;28;20789;-59
2022/09/02 00:13:26;;;;;;;1.02;0.90;;;;;;;;;;4948496;28;20235;-58
2022/09/02 00:15:55;;;;;;;1.45;1.27;;;;;;;;;;4945960;29;20243;-57
2022/09/02 00:18:23;;;;;;;1.92;1.08;;;;;;;;;;4943623;28;20239;-58
2022/09/02 00:20:50;;;;;;;1.70;1.30;;;;;;;;;;4942143;28;20664;-57
2022/09/02 00:23:16;;;;;;;1.33;1.23;;;;;;;;;;4948772;28;20259;-58
2022/09/02 00:25:43;;;;;;;1.48;1.38;;;;;;;;;;4947672;28;20263;-57
2022/09/02 00:28:10;;;;;;;2.75;1.20;;;;;;;;;;4948933;29;20239;-58
2022/09/02 00:30:37;;;;;;;1.45;1.35;;;;;;;;;;4938026;28;20287;-58
2022/09/02 00:33:05;;;;;;;2.35;1.42;;;;;;;;;;4942949;28;20235;-58
2022/09/02 00:35:31;;;;;;;1.30;1.20;;;;;;;;;;4943212;28;20246;-62
2022/09/02 00:37:58;;;;;;;1.80;1.48;;;;;;;;;;4942554;28;20243;-58
2022/09/02 00:40:25;;;;;;;1.58;1.23;;;;;;;;;;4947937;28;20246;-57
2022/09/02 00:42:51;;;;;;;1.25;1.15;;;;;;;;;;4941300;28;20231;-58
2022/09/02 00:45:18;;;;;;;1.50;1.40;;;;;;;;;;4944737;28;20378;-58
2022/09/02 00:47:46;;;;;;;1.50;1.17;;;;;;;;;;4945242;28;20228;-59
2022/09/02 00:50:15;;;;;;;2.97;1.65;;;;;;;;;;4946008;29;20314;-57
2022/09/02 00:52:44;;;;;;;3.15;1.27;;;;;;;;;;4943976;28;20227;-57
2022/09/02 00:55:13;;;;;;;1.40;1.30;;;;;;;;;;4939562;28;20248;-58
2022/09/02 00:57:44;;;;;;;2.97;1.20;;;;;;;;;;4946271;28;20219;-57
2022/09/02 01:00:12;;;;;;;1.77;1.52;;;;;;;;;;4948203;28;20230;-58
2022/09/02 01:02:40;;;;;;;1.33;1.20;;;;;;;;;;4944687;28;20235;-58
2022/09/02 01:05:08;;;;;;;3.45;1.50;;;;;;;;;;4947641;28;20237;-58
2022/09/02 01:07:37;;;;;;;3.38;1.63;;;;;;;;;;4938501;28;20243;-58
2022/09/02 01:10:04;;;;;;;1.02;1.00;;;;;;;;;;4947463;28;20341;-57
2022/09/02 01:12:31;;;;;;;1.17;1.05;;;;;;;;;;4944946;28;20231;-57
2022/09/02 01:14:59;;;;;;;2.60;1.38;;;;;;;;;;4945517;28;20250;-57
2022/09/02 01:17:26;;;;;;;1.50;1.13;;;;;;;;;;4948161;28;20871;-58
2022/09/02 01:19:54;;;;;;;2.75;0.88;;;;;;;;;;4945112;28;20235;-59
2022/09/02 01:22:23;;;;;;;1.75;1.30;;;;;;;;;;4945667;28;20618;-56
2022/09/02 01:24:50;;;;;;;2.25;1.17;;;;;;;;;;4943361;28;20299;-58
2022/09/02 01:27:17;;;;;;;1.92;1.13;;;;;;;;;;4942629;28;20239;-58
2022/09/02 01:29:44;;;;;;;1.85;1.25;;;;;;;;;;4936694;28;20890;-59
2022/09/02 01:32:10;;;;;;;1.65;1.27;;;;;;;;;;4947335;28;20623;-58
2022/09/02 01:34:37;;;;;;;1.50;1.40;;;;;;;;;;4945401;28;20239;-57
2022/09/02 01:37:03;;;;;;;1.60;1.40;;;;;;;;;;4947689;28;20584;-58
2022/09/02 01:39:31;;;;;;;1.65;1.13;;;;;;;;;;4945519;28;20247;-58
2022/09/02 01:41:59;;;;;;;1.45;1.30;;;;;;;;;;4942178;28;20240;-58
2022/09/02 01:44:26;;;;;;;4.13;1.08;;;;;;;;;;4948006;28;20290;-60
2022/09/02 01:46:52;;;;;;;1.70;1.50;;;;;;;;;;4942572;28;20758;-57
2022/09/02 01:49:19;;;;;;;2.15;1.23;;;;;;;;;;4938101;28;20244;-59
2022/09/02 01:51:45;;;;;;;4.15;1.20;;;;;;;;;;4933174;29;20236;-57
2022/09/02 01:54:12;;;;;;;2.38;1.52;;;;;;;;;;4944706;28;20705;-57
2022/09/02 01:56:40;;;;;;;1.10;1.00;;;;;;;;;;4945711;28;20705;-56
2022/09/02 01:59:07;;;;;;;1.55;1.45;;;;;;;;;;4941675;28;20261;-57
2022/09/02 02:01:33;;;;;;;1.40;1.30;;;;;;;;;;4942832;28;20653;-58
2022/09/02 02:04:01;;;;;;;1.40;1.30;;;;;;;;;;4938269;28;20237;-58
2022/09/02 02:06:27;;;;;;;1.77;0.98;;;;;;;;;;4940328;28;20267;-56
2022/09/02 02:08:54;;;;;;;1.90;1.00;;;;;;;;;;4945796;28;20606;-58
2022/09/02 02:11:21;;;;;;;1.50;1.30;;;;;;;;;;4948585;29;20251;-57
2022/09/02 02:13:48;;;;;;;2.47;1.10;;;;;;;;;;4945530;28;20788;-58
2022/09/02 02:16:15;;;;;;;1.45;1.20;;;;;;;;;;4946436;28;20252;-58
2022/09/02 02:18:41;;;;;;;1.58;1.45;;;;;;;;;;4946023;28;20231;-58
2022/09/02 02:21:08;;;;;;;1.50;1.10;;;;;;;;;;4942941;28;20243;-58
2022/09/02 02:23:35;;;;;;;1.65;1.33;;;;;;;;;;4943448;28;20258;-58
2022/09/02 02:26:01;;;;;;;2.78;1.10;;;;;;;;;;4947166;28;20235;-57
2022/09/02 02:28:29;;;;;;;2.78;0.98;;;;;;;;;;4938802;28;20259;-58
2022/09/02 02:30:58;;;;;;;1.20;1.10;;;;;;;;;;4947037;29;20658;-58
2022/09/02 02:33:24;;;;;;;1.23;1.10;;;;;;;;;;4933856;28;20786;-58
2022/09/02 02:35:51;;;;;;;2.35;1.48;;;;;;;;;;4937355;28;20246;-58
2022/09/02 02:38:18;;;;;;;0.85;0.85;;;;;;;;;;4932296;28;20927;-58
2022/09/02 02:40:44;;;;;;;2.72;1.20;;;;;;;;;;4947773;29;20266;-59
2022/09/02 02:43:11;;;;;;;1.15;1.10;;;;;;;;;;4946269;28;20235;-57
2022/09/02 02:45:37;;;;;;;1.45;1.27;;;;;;;;;;4945212;28;20242;-57
2022/09/02 02:48:05;;;;;;;0.98;0.98;;;;;;;;;;4941595;28;20242;-59
2022/09/02 02:50:32;;;;;;;1.40;1.10;;;;;;;;;;4944864;28;20228;-56
2022/09/02 02:53:00;;;;;;;4.95;1.27;;;;;;;;;;4945681;28;20231;-58
2022/09/02 02:55:27;;;;;;;1.77;1.20;;;;;;;;;;4941628;28;20262;-58
2022/09/02 02:57:53;;;;;;;1.48;1.17;;;;;;;;;;4937091;29;20250;-59
2022/09/02 03:00:21;;;;;;;1.85;1.73;;;;;;;;;;4941949;28;20243;-56
2022/09/02 03:02:48;;;;;;;1.42;1.02;;;;;;;;;;4936691;29;20246;-57
2022/09/02 03:05:16;;;;;;;2.03;1.27;;;;;;;;;;4939114;28;20310;-59
2022/09/02 03:07:43;;;;;;;2.88;1.33;;;;;;;;;;4937473;28;20685;-56
2022/09/02 03:10:10;;;;;;;3.72;1.02;;;;;;;;;;4945462;28;20269;-57
2022/09/02 03:12:37;;;;;;;1.23;1.10;;;;;;;;;;4928710;29;20235;-57
2022/09/02 03:15:05;;;;;;;2.15;1.60;;;;;;;;;;4938808;28;20236;-57
2022/09/02 03:17:31;;;;;;;1.52;1.33;;;;;;;;;;4946388;28;20326;-57
2022/09/02 03:19:58;;;;;;;1.63;1.52;;;;;;;;;;4943788;29;20241;-57
2022/09/02 03:22:26;;;;;;;1.58;1.48;;;;;;;;;;4949503;28;20265;-57
2022/09/02 03:24:53;;;;;;;1.50;1.30;;;;;;;;;;4947622;28;20231;-57
2022/09/02 03:27:19;;;;;;;1.63;1.25;;;;;;;;;;4947948;28;20267;-57
2022/09/02 03:29:45;;;;;;;1.25;1.15;;;;;;;;;;4938001;28;20232;-58
2022/09/02 03:32:12;;;;;;;0.95;0.93;;;;;;;;;;4947495;29;20239;-57
2022/09/02 03:34:40;;;;;;;6.28;1.33;;;;;;;;;;4949579;28;20231;-58
2022/09/02 03:37:07;;;;;;;1.58;1.38;;;;;;;;;;4942445;28;20242;-57
2022/09/02 03:39:35;;;;;;;1.40;1.30;;;;;;;;;;4948283;28;20815;-57
2022/09/02 03:42:01;;;;;;;1.88;1.35;;;;;;;;;;4942331;28;20235;-58
2022/09/02 03:44:28;;;;;;;1.85;1.27;;;;;;;;;;4935231;29;20266;-57
2022/09/02 03:46:54;;;;;;;1.98;1.63;;;;;;;;;;4947821;28;20235;-58
2022/09/02 03:49:20;;;;;;;5.00;1.70;;;;;;;;;;4947840;28;20239;-58
2022/09/02 03:51:47;;;;;;;1.63;1.42;;;;;;;;;;4937280;28;20231;-57
2022/09/02 03:54:13;;;;;;;1.55;1.45;;;;;;;;;;4945018;28;20239;-57
2022/09/02 03:56:41;;;;;;;3.33;1.88;;;;;;;;;;4937639;28;20825;-58
2022/09/02 03:59:07;;;;;;;1.75;1.65;;;;;;;;;;4947714;28;20250;-59
2022/09/02 04:01:34;;;;;;;1.33;1.23;;;;;;;;;;4941871;28;20270;-58
2022/09/02 04:04:01;;;;;;;1.75;1.60;;;;;;;;;;4948532;28;20227;-58
2022/09/02 04:06:27;;;;;;;3.03;1.58;;;;;;;;;;4940130;28;20239;-58
2022/09/02 04:08:54;;;;;;;1.60;1.50;;;;;;;;;;4948163;28;20227;-58
2022/09/02 04:11:21;;;;;;;2.65;1.75;;;;;;;;;;4948224;28;20775;-57
2022/09/02 04:13:50;;;;;;;2.00;1.75;;;;;;;;;;4947003;28;20254;-57
2022/09/02 04:16:17;;;;;;;1.50;1.33;;;;;;;;;;4945603;28;20249;-57
2022/09/02 04:18:44;;;;;;;1.40;1.30;;;;;;;;;;4948333;28;20322;-57
2022/09/02 04:21:10;;;;;;;1.80;1.55;;;;;;;;;;4949604;29;20242;-57
2022/09/02 04:23:37;;;;;;;1.45;1.23;;;;;;;;;;4945635;28;20314;-58
2022/09/02 04:26:04;;;;;;;3.22;1.75;;;;;;;;;;4949288;28;20242;-59
2022/09/02 04:28:30;;;;;;;3.05;1.63;;;;;;;;;;4948958;28;20283;-58
2022/09/02 04:30:58;;;;;;;2.72;1.30;;;;;;;;;;4949015;29;20310;-57
2022/09/02 04:33:25;;;;;;;2.05;1.80;;;;;;;;;;4947719;28;20243;-57
2022/09/02 04:35:51;;;;;;;3.05;1.92;;;;;;;;;;4945911;29;20235;-57
2022/09/02 04:38:19;;;;;;;1.48;1.38;;;;;;;;;;4945718;28;20240;-57
2022/09/02 04:40:48;;;;;;;1.50;1.40;;;;;;;;;;4939792;28;20665;-57
2022/09/02 04:43:14;;;;;;;1.52;1.38;;;;;;;;;;4942608;29;20236;-57
2022/09/02 04:45:41;;;;;;;4.28;1.50;;;;;;;;;;4938033;28;20322;-59
2022/09/02 04:48:09;;;;;;;3.08;1.60;;;;;;;;;;4944116;28;20240;-58
2022/09/02 04:50:36;;;;;;;4.45;2.00;;;;;;;;;;4942820;28;20239;-58
2022/09/02 04:53:03;;;;;;;1.88;1.77;;;;;;;;;;4947282;28;20227;-58
2022/09/02 04:55:29;;;;;;;1.63;1.52;;;;;;;;;;4944705;28;20271;-57
2022/09/02 04:57:55;;;;;;;1.65;1.33;;;;;;;;;;4947113;28;20235;-57
2022/09/02 05:00:22;;;;;;;3.53;1.40;;;;;;;;;;4948989;28;20235;-58
2022/09/02 05:02:48;;;;;;;3.65;1.73;;;;;;;;;;4942290;28;20228;-59
2022/09/02 05:05:16;;;;;;;1.98;1.60;;;;;;;;;;4935093;29;20261;-57
2022/09/02 05:07:42;;;;;;;2.20;1.63;;;;;;;;;;4947437;28;20231;-58
2022/09/02 05:10:09;;;;;;;2.55;1.70;;;;;;;;;;4947743;28;20328;-56
2022/09/02 05:12:36;;;;;;;2.60;2.00;;;;;;;;;;4946488;28;20329;-57
2022/09/02 05:15:03;;;;;;;2.25;1.83;;;;;;;;;;4942857;28;20248;-57
2022/09/02 05:17:30;;;;;;;2.42;1.80;;;;;;;;;;4946752;28;20583;-57
2022/09/02 05:19:57;;;;;;;1.95;1.55;;;;;;;;;;4940150;28;20343;-57
2022/09/02 05:22:28;;;;;;;1.95;1.83;;;;;;;;;;4946239;28;20246;-56
2022/09/02 05:24:54;;;;;;;3.58;1.75;;;;;;;;;;4937578;29;20236;-57
2022/09/02 05:27:22;;;;;;;2.60;1.88;;;;;;;;;;4943064;29;20234;-58
2022/09/02 05:29:48;;;;;;;4.38;2.20;;;;;;;;;;4944228;28;20658;-56
2022/09/02 05:32:15;;;;;;;3.40;1.98;;;;;;;;;;4946701;28;20231;-58
2022/09/02 05:34:41;;;;;;;2.42;1.98;;;;;;;;;;4939731;29;20775;-57
2022/09/02 05:37:08;;;;;;;1.70;1.60;;;;;;;;;;4937032;28;20243;-57
2022/09/02 05:39:36;;;;;;;2.17;1.65;;;;;;;;;;4940077;28;20262;-57
2022/09/02 05:42:02;;;;;;;2.88;1.77;;;;;;;;;;4940949;28;20242;-58
2022/09/02 05:44:30;;;;;;;1.58;1.48;;;;;;;;;;4939183;29;20240;-58
2022/09/02 05:46:56;;;;;;;2.30;1.60;;;;;;;;;;4941158;29;20249;-57
2022/09/02 05:49:22;;;;;;;3.33;2.58;;;;;;;;;;4945942;29;20286;-57
2022/09/02 05:51:51;;;;;;;1.90;1.70;;;;;;;;;;4940346;28;20723;-57
2022/09/02 05:54:19;;;;;;;1.85;1.30;;;;;;;;;;4935835;28;20267;-57
2022/09/02 05:56:48;;;;;;;2.75;2.03;;;;;;;;;;4945137;28;20338;-58
2022/09/02 05:59:15;;;;;;;1.73;1.55;;;;;;;;;;4940284;28;20244;-57
2022/09/02 06:01:42;;;;;;;2.92;1.90;;;;;;;;;;4943265;28;21033;-59
2022/09/02 06:04:08;;;;;;;2.00;1.60;;;;;;;;;;4946782;29;20239;-58
2022/09/02 06:06:37;;;;;;;2.13;1.90;;;;;;;;;;4942505;28;20236;-57
2022/09/02 06:09:05;;;;;;;2.50;1.75;;;;;;;;;;4931090;29;20240;-58
2022/09/02 06:11:38;;;;;;;7.03;1.75;;;;;;;;;;4934093;29;20245;-58
2022/09/02 06:14:06;;;;;;;3.10;1.90;;;;;;;;;;4935287;28;20234;-57
2022/09/02 06:16:33;;;;;;;2.47;1.90;;;;;;;;;;4941333;28;20324;-56
2022/09/02 06:19:02;;;;;;;5.68;1.83;;;;;;;;;;4942633;28;20242;-56
2022/09/02 06:21:29;;;;;;;5.10;2.08;;;;;;;;;;4946078;29;20240;-56
2022/09/02 06:23:55;;;;;;;5.18;2.03;;;;;;;;;;4944524;28;20234;-57
2022/09/02 06:26:22;;;;;;;2.85;2.15;;;;;;;;;;4945596;29;20627;-57
2022/09/02 06:28:48;;;;;;;3.15;2.15;;;;;;;;;;4941671;28;20238;-57
2022/09/02 06:31:17;;;;;;;3.13;1.80;;;;;;;;;;4945237;28;20726;-57
2022/09/02 06:33:45;;;;;;;3.55;2.25;;;;;;;;;;4942312;28;20231;-57
2022/09/02 06:36:13;;;;;;;2.38;1.85;;;;;;;;;;4944923;28;20234;-59
2022/09/02 06:38:42;;;;;;;1.83;1.67;;;;;;;;;;4945838;28;20231;-58
2022/09/02 06:41:10;;;;;;;4.60;2.05;;;;;;;;;;4944641;29;20267;-57
2022/09/02 06:43:37;;;;;;;4.95;1.90;;;;;;;;;;4940363;28;20232;-58
2022/09/02 06:46:03;;;;;;;3.13;1.92;;;;;;;;;;4937373;28;20243;-57
2022/09/02 06:48:31;;;;;;;2.63;1.70;;;;;;;;;;4943649;28;20242;-57
2022/09/02 06:50:57;;;;;;;2.50;2.08;;;;;;;;;;4935526;28;20246;-58
2022/09/02 06:53:24;;;;;;;2.78;2.22;;;;;;;;;;4936111;28;20239;-58
2022/09/02 06:55:51;;;;;;;2.83;1.83;;;;;;;;;;4940663;28;20313;-59
2022/09/02 06:58:17;;;;;;;4.97;2.20;;;;;;;;;;4939050;28;20242;-58
2022/09/02 07:00:43;;;;;;;4.32;1.45;;;;;;;;;;4940437;28;20748;-57
2022/09/02 07:06:05;;;;;;;3.58;1.88;;;;;;;;;;4944616;29;20341;-58
2022/09/02 07:08:31;;;;;;;3.70;2.20;;;;;;;;;;4942881;28;20294;-58
2022/09/02 07:10:58;;;;;;;3.65;2.15;;;;;;;;;;4941569;28;20239;-57
2022/09/02 07:13:24;;;;;;;4.38;2.75;;;;;;;;;;4943443;28;20611;-57
2022/09/02 07:15:50;;;;;;;7.45;2.30;;;;;;;;;;4938927;28;20239;-59
2022/09/02 07:18:17;;;;;;;3.13;2.08;;;;;;;;;;4927300;29;20236;-57
2022/09/02 07:20:44;;;;;;;2.88;2.60;;;;;;;;;;4945716;28;20242;-59
2022/09/02 07:23:12;;;;;;;3.20;2.33;;;;;;;;;;4945311;29;20237;-58
2022/09/02 07:25:39;;;;;;;3.25;2.10;;;;;;;;;;4941520;28;20235;-58
2022/09/02 07:28:06;;;;;;;1.77;1.67;;;;;;;;;;4943576;29;20263;-58
2022/09/02 07:30:32;;;;;;;3.10;2.75;;;;;;;;;;4939181;28;20246;-58
2022/09/02 07:32:59;;;;;;;7.38;2.97;;;;;;;;;;4937082;28;20664;-57
2022/09/02 07:35:25;;;;;;;4.30;2.35;;;;;;;;;;4942315;28;20243;-57
2022/09/02 07:37:51;;;;;;;3.33;2.22;;;;;;;;;;4942550;28;20242;-58
2022/09/02 07:40:19;;;;;;;5.22;2.00;;;;;;;;;;4941225;28;20251;-58
2022/09/02 07:42:45;;;;;;;2.92;2.20;;;;;;;;;;4938871;28;20239;-57
2022/09/02 07:45:12;;;;;;;4.68;2.20;;;;;;;;;;4944076;28;20243;-57
2022/09/02 07:47:39;;;;;;;2.42;2.13;;;;;;;;;;4942218;28;20243;-57
2022/09/02 07:50:06;;;;;;;3.97;2.13;;;;;;;;;;4942543;28;20326;-57
2022/09/02 07:52:32;;;;;;;2.40;2.17;;;;;;;;;;4941794;28;20228;-58
2022/09/02 07:54:58;;;;;;;4.03;2.05;;;;;;;;;;4940563;28;20693;-57
2022/09/02 07:57:26;;;;;;;2.30;1.95;;;;;;;;;;4944054;29;20612;-57
2022/09/02 07:59:53;;;;;;;3.58;2.10;;;;;;;;;;4942472;29;20231;-60
2022/09/02 08:02:20;;;;;;;1.80;1.70;;;;;;;;;;4942050;28;20247;-57
2022/09/02 08:04:46;;;;;;;3.50;1.95;;;;;;;;;;4932036;28;20342;-58
2022/09/02 08:07:12;;;;;;;2.55;2.00;;;;;;;;;;4939529;28;20240;-60
2022/09/02 08:09:39;;;;;;;4.00;1.80;;;;;;;;;;4938429;28;20246;-56
2022/09/02 08:12:06;;;;;;;1.83;1.63;;;;;;;;;;4942125;28;20227;-60
2022/09/02 08:14:34;;;;;;;2.65;2.15;;;;;;;;;;4943272;28;20227;-56
2022/09/02 08:17:00;;;;;;;2.33;1.98;;;;;;;;;;4939770;28;20724;-55
2022/09/02 08:19:27;;;;;;;1.90;1.63;;;;;;;;;;4946991;28;20238;-55
2022/09/02 08:21:54;;;;;;;3.35;1.70;;;;;;;;;;4944364;28;20266;-56
2022/09/02 08:24:20;;;;;;;2.17;1.80;;;;;;;;;;4943065;28;20733;-55
2022/09/02 08:26:46;;;;;;;4.28;2.17;;;;;;;;;;4938512;28;20227;-57
2022/09/02 08:29:13;;;;;;;2.30;1.63;;;;;;;;;;4946427;28;20254;-55
2022/09/02 08:31:40;;;;;;;1.20;1.15;;;;;;;;;;4941208;28;20321;-55
2022/09/02 08:34:07;;;;;;;2.70;1.70;;;;;;;;;;4944467;28;20247;-56
2022/09/02 08:36:33;;;;;;;3.75;1.40;;;;;;;;;;4937275;28;20466;-56
2022/09/02 08:39:01;;;;;;;5.13;1.55;;;;;;;;;;4932899;28;20264;-55
2022/09/02 08:41:31;;;;;;;3.65;1.42;;;;;;;;;;4936177;28;20266;-54
2022/09/02 08:43:58;;;;;;;2.83;1.20;;;;;;;;;;4940255;28;20231;-57
2022/09/02 08:46:25;;;;;;;1.33;1.23;;;;;;;;;;4943373;28;20239;-56
2022/09/02 08:48:55;;;;;;;7.82;2.15;;;;;;;;;;4943810;29;20730;-57
2022/09/02 08:51:24;;;;;;;2.85;1.27;;;;;;;;;;4945043;28;20234;-56
2022/09/02 08:53:53;;;;;;;2.95;1.73;;;;;;;;;;4944459;28;20242;-56
2022/09/02 08:56:20;;;;;;;1.73;1.42;;;;;;;;;;4943494;29;20264;-55
2022/09/02 08:58:51;;;;;;;2.00;1.17;;;;;;;;;;4944330;28;20613;-56
2022/09/02 09:01:23;;;;;;;1.70;1.33;;;;;;;;;;4937613;28;20234;-56
2022/09/02 09:04:00;;;;;;;3.58;1.52;;;;;;;;;;4947319;28;20246;-57
2022/09/02 09:06:33;;;;;;;2.80;1.23;;;;;;;;;;4946133;28;20672;-56
2022/09/02 09:09:05;;;;;;;2.22;0.90;;;;;;;;;;4941172;28;20231;-57
2022/09/02 09:11:35;;;;;;;2.58;0.98;;;;;;;;;;4945319;28;20326;-56
2022/09/02 09:14:05;;;;;;;1.17;0.80;;;;;;;;;;4936145;28;20235;-55
2022/09/02 09:16:37;;;;;;;1.20;1.10;;;;;;;;;;4942581;28;20245;-57
2022/09/02 09:19:08;;;;;;;1.40;1.10;;;;;;;;;;4942665;28;20231;-55
2022/09/02 09:21:34;;;;;;;1.08;1.05;;;;;;;;;;4940881;28;20242;-54
2022/09/02 09:24:02;;;;;;;0.98;0.90;;;;;;;;;;4938058;28;20235;-57
2022/09/02 09:26:32;;;;;;;3.05;1.15;;;;;;;;;;4945422;28;20235;-57
2022/09/02 09:28:58;;;;;;;1.15;0.80;;;;;;;;;;4940716;28;20247;-57
2022/09/02 09:31:29;;;;;;;1.10;1.00;;;;;;;;;;4942270;28;20236;-59
2022/09/02 09:33:57;;;;;;;1.00;1.00;;;;;;;;;;4940040;28;20709;-55
2022/09/02 09:36:38;;;;;;;1.10;1.00;;;;;;;;;;4943224;28;20294;-55
2022/09/02 09:39:16;;;;;;;1.35;1.02;;;;;;;;;;4930156;28;20789;-56
2022/09/02 09:41:43;;;;;;;1.80;1.00;;;;;;;;;;4941508;28;20235;-54
2022/09/02 09:44:09;;;;;;;5.15;1.20;;;;;;;;;;4947186;28;20680;-57
2022/09/02 09:46:35;;;;;;;2.35;1.20;;;;;;;;;;4937556;28;20244;-56
2022/09/02 09:49:02;;;;;;;1.75;0.95;;;;;;;;;;4946574;28;20258;-56
2022/09/02 09:51:28;;;;;;;2.53;1.25;;;;;;;;;;4936987;28;20701;-56
2022/09/02 09:54:13;;;;;;;2.40;1.30;;;;;;;;;;4938761;28;20231;-56
2022/09/02 09:56:41;;;;;;;2.22;1.35;;;;;;;;;;4937284;28;20239;-55
2022/09/02 09:59:09;;;;;;;1.33;1.10;;;;;;;;;;4940421;28;20247;-56
2022/09/02 10:01:36;;;;;;;3.42;1.55;;;;;;;;;;4940446;28;20243;-56
2022/09/02 10:04:05;;;;;;;5.22;1.70;;;;;;;;;;4935615;28;20905;-56
2022/09/02 10:06:38;;;;;;;0.95;0.80;;;;;;;;;;4941213;28;20235;-56
2022/09/02 10:09:06;;;;;;;1.15;0.77;;;;;;;;;;4940398;28;20239;-57
2022/09/02 10:11:33;;;;;;;1.35;0.70;;;;;;;;;;4942774;28;20243;-56
2022/09/02 10:14:02;;;;;;;2.45;0.70;;;;;;;;;;4935039;28;20323;-57
2022/09/02 10:16:35;;;;;;;1.02;1.00;;;;;;;;;;4942159;28;20253;-57
2022/09/02 10:19:04;;;;;;;2.38;1.00;;;;;;;;;;4938212;28;20239;-57
2022/09/02 10:21:38;;;;;;;0.90;0.90;;;;;;;;;;4933014;28;20242;-56
2022/09/02 10:24:08;;;;;;;2.72;1.10;;;;;;;;;;4941086;28;20235;-56
2022/09/02 10:26:37;;;;;;;2.35;1.20;;;;;;;;;;4938886;28;20242;-57
2022/09/02 10:29:14;;;;;;;2.08;1.13;;;;;;;;;;4937938;28;20230;-56
2022/09/02 10:31:46;;;;;;;1.40;0.77;;;;;;;;;;4934962;28;20258;-57
2022/09/02 10:34:16;;;;;;;1.60;1.00;;;;;;;;;;4941977;28;20721;-55
2022/09/02 10:36:48;;;;;;;1.83;1.02;;;;;;;;;;4946774;28;20314;-56
2022/09/02 10:39:19;;;;;;;1.20;1.00;;;;;;;;;;4941779;28;20235;-56
2022/09/02 10:41:47;;;;;;;1.83;0.90;;;;;;;;;;4939885;29;20236;-56
2022/09/02 10:44:22;;;;;;;0.70;0.70;;;;;;;;;;4944265;28;20235;-56
2022/09/02 10:46:53;;;;;;;0.68;0.68;;;;;;;;;;4920155;29;20239;-57
2022/09/02 10:49:23;;;;;;;1.35;0.90;;;;;;;;;;4925653;29;20246;-55
2022/09/02 10:51:54;;;;;;;1.55;1.15;;;;;;;;;;4940980;28;20242;-55
2022/09/02 10:54:28;;;;;;;3.17;1.10;;;;;;;;;;4938549;28;20270;-57
2022/09/02 10:56:58;;;;;;;2.25;0.80;;;;;;;;;;4941557;28;20246;-56
2022/09/02 10:59:29;;;;;;;1.55;1.08;;;;;;;;;;4938661;28;20231;-56
2022/09/02 11:01:57;;;;;;;1.25;1.05;;;;;;;;;;4939311;28;20238;-56
2022/09/02 11:04:27;;;;;;;1.88;1.00;;;;;;;;;;4944298;28;20239;-56
2022/09/02 11:06:56;;;;;;;1.25;1.05;;;;;;;;;;4940804;28;20250;-57
2022/09/02 11:09:26;;;;;;;0.63;0.63;;;;;;;;;;4945418;28;20330;-56
2022/09/02 11:11:56;;;;;;;0.90;0.90;;;;;;;;;;4945208;28;20250;-56
2022/09/02 11:14:24;;;;;;;0.60;0.57;;;;;;;;;;4942676;29;20245;-57
2022/09/02 11:16:57;;;;;;;27.90;1.50;;;;;;;;;;4938404;28;20250;-57
2022/09/02 11:19:27;;;;;;;1.58;1.15;;;;;;;;;;4941553;28;20239;-57
2022/09/02 11:21:57;;;;;;;1.55;1.13;;;;;;;;;;4942356;28;20235;-56
2022/09/02 11:24:26;;;;;;;2.33;1.27;;;;;;;;;;4942842;28;20323;-55
2022/09/02 11:26:55;;;;;;;1.63;0.90;;;;;;;;;;4933291;28;20250;-57
2022/09/02 11:29:25;;;;;;;1.45;0.80;;;;;;;;;;4940917;28;20614;-55
2022/09/02 11:31:57;;;;;;;0.90;0.80;;;;;;;;;;4940778;28;20729;-57
2022/09/02 11:34:34;;;;;;;1.13;0.80;;;;;;;;;;4941259;28;20671;-57
2022/09/02 11:37:02;;;;;;;1.00;1.00;;;;;;;;;;4936574;28;20227;-56
2022/09/02 11:39:32;;;;;;;1.02;0.93;;;;;;;;;;4940791;28;20231;-56
2022/09/02 11:42:06;;;;;;;1.85;1.00;;;;;;;;;;4940427;28;20377;-57
2022/09/02 11:44:59;;;;;;;1.38;1.00;;;;;;;;;;4939130;28;20717;-56
2022/09/02 11:47:41;;;;;;;1.20;1.10;;;;;;;;;;4909523;28;20246;-56
2022/09/02 11:50:26;;;;;;;1.75;0.95;;;;;;;;;;4941156;28;21923;-55
2022/09/02 11:52:55;;;;;;;1.20;1.10;;;;;;;;;;4946371;28;20231;-57
2022/09/02 11:55:24;;;;;;;1.95;1.10;;;;;;;;;;4947525;28;20247;-55
2022/09/02 11:57:52;;;;;;;1.30;1.08;;;;;;;;;;4938992;28;20227;-57
2022/09/02 12:00:28;;;;;;;1.30;1.17;;;;;;;;;;4940311;28;20330;-57
2022/09/02 12:02:59;;;;;;;0.98;0.88;;;;;;;;;;4940870;28;20247;-55
2022/09/02 12:05:44;;;;;;;1.25;1.05;;;;;;;;;;4946734;28;20665;-56
2022/09/02 12:08:12;;;;;;;1.13;1.00;;;;;;;;;;4945638;28;20234;-57
2022/09/02 12:10:58;;;;;;;2.30;1.10;;;;;;;;;;4946929;28;20231;-58
2022/09/02 12:13:34;;;;;;;1.08;0.73;;;;;;;;;;4937632;28;20330;-57
2022/09/02 12:16:19;;;;;;;1.30;1.02;;;;;;;;;;4943244;28;20250;-57
2022/09/02 12:19:09;;;;;;;2.05;0.90;;;;;;;;;;4945615;28;20389;-57
2022/09/02 12:22:00;;;;;;;1.85;1.17;;;;;;;;;;4944644;28;20232;-57
2022/09/02 12:24:27;;;;;;;1.10;1.00;;;;;;;;;;4939147;28;20242;-56
2022/09/02 12:27:04;;;;;;;3.13;1.10;;;;;;;;;;4943750;28;20262;-58
2022/09/02 12:29:32;;;;;;;4.32;0.80;;;;;;;;;;4940312;28;20355;-55
2022/09/02 12:31:58;;;;;;;2.40;0.98;;;;;;;;;;4935201;28;20235;-57
2022/09/02 12:34:45;;;;;;;1.05;0.90;;;;;;;;;;4940147;28;20250;-57
2022/09/02 12:37:33;;;;;;;2.33;1.10;;;;;;;;;;4944555;28;20239;-56
2022/09/02 12:40:03;;;;;;;1.20;1.10;;;;;;;;;;4946471;28;20242;-56
2022/09/02 12:42:32;;;;;;;1.00;0.90;;;;;;;;;;4941243;28;20330;-57
2022/09/02 12:45:05;;;;;;;1.05;0.90;;;;;;;;;;4935003;29;20242;-57
2022/09/02 12:47:41;;;;;;;3.15;1.17;;;;;;;;;;4932429;28;20242;-56
2022/09/02 12:50:09;;;;;;;0.75;0.75;;;;;;;;;;4944166;28;20243;-55
2022/09/02 12:52:42;;;;;;;1.00;0.93;;;;;;;;;;4941542;28;20246;-56
2022/09/02 12:55:10;;;;;;;1.85;0.93;;;;;;;;;;4944412;28;20238;-56
2022/09/02 12:57:38;;;;;;;0.95;0.90;;;;;;;;;;4942446;28;20247;-56
2022/09/02 13:00:05;;;;;;;1.02;0.88;;;;;;;;;;4948001;28;20250;-57
2022/09/02 13:02:39;;;;;;;2.25;0.90;;;;;;;;;;4947890;28;20245;-56
2022/09/02 13:05:14;;;;;;;1.42;0.70;;;;;;;;;;4935345;28;20232;-56
2022/09/02 13:08:01;;;;;;;1.35;0.93;;;;;;;;;;4934271;28;20900;-57
2022/09/02 13:10:32;;;;;;;2.42;1.02;;;;;;;;;;4946356;28;20384;-57
2022/09/02 13:13:07;;;;;;;1.15;1.05;;;;;;;;;;4946979;28;20238;-56
2022/09/02 13:15:42;;;;;;;1.80;1.10;;;;;;;;;;4940787;28;20238;-56
2022/09/02 13:18:16;;;;;;;0.80;0.80;;;;;;;;;;4939652;28;20235;-59
2022/09/02 13:21:09;;;;;;;1.60;1.35;;;;;;;;;;4936987;28;20250;-57
2022/09/02 13:24:05;;;;;;;1.02;0.88;;;;;;;;;;4945132;28;20247;-56
2022/09/02 13:26:50;;;;;;;1.00;1.00;;;;;;;;;;4943053;28;20306;-54
2022/09/02 13:29:34;;;;;;;2.03;1.15;;;;;;;;;;4944494;28;20746;-56
2022/09/02 13:32:03;;;;;;;1.48;1.33;;;;;;;;;;4946087;28;20247;-55
2022/09/02 13:34:31;;;;;;;1.80;1.05;;;;;;;;;;4945692;28;20286;-54
2022/09/02 13:36:57;;;;;;;1.35;1.25;;;;;;;;;;4938569;28;20243;-57
2022/09/02 13:39:24;;;;;;;2.53;1.00;;;;;;;;;;4944259;28;20250;-57
2022/09/02 13:41:52;;;;;;;1.13;1.02;;;;;;;;;;4941795;28;20244;-56
2022/09/02 13:44:23;;;;;;;1.27;1.17;;;;;;;;;;4945762;28;20242;-55
2022/09/02 13:46:50;;;;;;;5.22;1.83;;;;;;;;;;4940125;28;20721;-56
2022/09/02 13:49:20;;;;;;;0.95;0.95;;;;;;;;;;4940558;28;20697;-56
2022/09/02 13:51:47;;;;;;;1.08;1.00;;;;;;;;;;4938191;28;20232;-57
2022/09/02 13:54:14;;;;;;;1.67;1.20;;;;;;;;;;4940922;28;20236;-56
2022/09/02 13:56:40;;;;;;;1.58;1.35;;;;;;;;;;4940130;28;20251;-56
2022/09/02 13:59:08;;;;;;;1.23;1.13;;;;;;;;;;4935383;28;20647;-55
2022/09/02 14:01:38;;;;;;;1.20;1.10;;;;;;;;;;4943058;28;20242;-56
2022/09/02 14:04:06;;;;;;;1.80;1.42;;;;;;;;;;4938292;28;20234;-56
2022/09/02 14:06:35;;;;;;;2.00;1.33;;;;;;;;;;4942348;28;20760;-56
2022/09/02 14:09:03;;;;;;;1.00;1.00;;;;;;;;;;4940698;28;20737;-57
2022/09/02 14:11:33;;;;;;;1.83;1.17;;;;;;;;;;4939628;28;20243;-59
2022/09/02 14:13:59;;;;;;;1.27;1.10;;;;;;;;;;4934492;28;20327;-58
2022/09/02 14:16:32;;;;;;;2.83;1.52;;;;;;;;;;4943422;28;20247;-57
2022/09/02 14:19:06;;;;;;;2.33;1.27;;;;;;;;;;4935288;28;20238;-57
2022/09/02 14:21:33;;;;;;;1.23;1.10;;;;;;;;;;4940610;28;20235;-57
2022/09/02 14:23:59;;;;;;;1.17;1.08;;;;;;;;;;4938527;28;20614;-57
2022/09/02 14:26:30;;;;;;;1.55;1.27;;;;;;;;;;4939361;28;20246;-58
2022/09/02 14:28:56;;;;;;;2.13;1.58;;;;;;;;;;4937933;28;20610;-57
2022/09/02 14:31:23;;;;;;;1.30;1.20;;;;;;;;;;4935750;28;20246;-58
2022/09/02 14:33:51;;;;;;;1.30;1.20;;;;;;;;;;4941445;28;20237;-59
2022/09/02 14:36:31;;;;;;;2.55;1.65;;;;;;;;;;4939078;28;20249;-58
2022/09/02 14:39:09;;;;;;;1.58;1.17;;;;;;;;;;4937026;28;20236;-57
2022/09/02 14:41:35;;;;;;;1.30;1.13;;;;;;;;;;4937880;28;20243;-57
2022/09/02 14:44:09;;;;;;;1.45;1.35;;;;;;;;;;4942808;28;20263;-58
2022/09/02 14:46:37;;;;;;;1.88;1.20;;;;;;;;;;4940732;28;20248;-58
2022/09/02 14:49:05;;;;;;;0.95;0.80;;;;;;;;;;4934534;28;20234;-58
2022/09/02 14:51:37;;;;;;;2.72;1.20;;;;;;;;;;4940711;28;20239;-56
2022/09/02 14:54:04;;;;;;;1.20;1.10;;;;;;;;;;4938067;28;20238;-57
2022/09/02 14:56:43;;;;;;;1.27;0.90;;;;;;;;;;4942522;28;20635;-57